Flight Track Log - Related Links

Times and Time Zones

All times are in EDT time to prevent confusion due to time zone crossing. See the AAL963 flight status page for this flight to view local times or setup timezone preferences in your user account.

Time Position Orientation Groundspeed Altitude Reporting Facility
EDT Latitude Longitude Course Direction KTS MPH feet Rate Location/Type
Wed 10:32:31 PM 32.9320 -97.0540 347° North 194 223 2,000  Level FlightAware ADS-B
Wed 10:32:51 PM 32.9500 -97.0610 342° North 216 249 2,300 857 Climbing FlightAware ADS-B
Wed 10:33:13 PM 32.9710 -97.0700 340° North 238 274 2,600 857 Climbing FlightAware ADS-B
Wed 10:33:33 PM 32.9940 -97.0790 342° North 261 300 2,900 1,167 Climbing FlightAware ADS-B
Wed 10:33:49 PM 33.0130 -97.0910 332° Northwest 277 319 3,300 1,615 Climbing FlightAware ADS-B
Wed 10:33:59 PM 33.0210 -97.1020 311° West 283 326 3,600 1,667 Climbing FlightAware ADS-B
Wed 10:34:07 PM 33.0250 -97.1130 293° West 286 329 3,800 2,000 Climbing FlightAware ADS-B
Wed 10:34:17 PM 33.0280 -97.1290 283° West 289 333 4,200 2,595 Climbing FlightAware ADS-B
Wed 10:34:44 PM 33.0260 -97.1700 267° West 285 328 5,400 2,681 Climbing FlightAware ADS-B
Wed 10:35:04 PM 33.0240 -97.2020 266° West 283 326 6,300 2,595 Climbing FlightAware ADS-B
Wed 10:35:21 PM 33.0220 -97.2290 265° West 284 327 7,000 2,270 Climbing FlightAware ADS-B
Wed 10:35:41 PM 33.0200 -97.2600 266° West 286 329 7,700 2,250 Climbing FlightAware ADS-B
Wed 10:36:01 PM 33.0180 -97.2920 266° West 288 331 8,500 2,294 Climbing FlightAware ADS-B
Wed 10:36:15 PM 33.0140 -97.3140 258° West 291 335 9,000 2,182 Climbing FlightAware ADS-B
Wed 10:36:23 PM 33.0080 -97.3260 239° Southwest 294 338 9,300 1,875 Climbing FlightAware ADS-B
Wed 10:36:31 PM 33.0010 -97.3360 230° Southwest 299 344 9,500 1,500 Climbing FlightAware ADS-B
Wed 10:36:35 PM 32.9970 -97.3400 220° Southwest 302 348 9,600 1,500 Climbing FlightAware ADS-B
Wed 10:36:43 PM 32.9870 -97.3460 207° Southwest 307 353 9,800 1,500 Climbing FlightAware ADS-B
Wed 10:36:59 PM 32.9660 -97.3520 193° South 315 362 10,200 1,000 Climbing FlightAware ADS-B
Wed 10:37:19 PM 32.9400 -97.3430 164° South 329 379 10,400 923 Climbing FlightAware ADS-B
Wed 10:37:51 PM 32.8970 -97.3080 146° Southeast 357 411 11,000 1,100 Climbing FlightAware ADS-B
Wed 10:38:19 PM 32.8580 -97.2750 145° Southeast 380 437 11,500 1,219 Climbing FlightAware ADS-B
Wed 10:38:55 PM 32.8030 -97.2300 145° Southeast 401 461 12,300 1,667 Climbing FlightAware ADS-B
Wed 10:39:31 PM 32.7450 -97.1840 146° Southeast 410 472 13,500 1,935 Climbing FlightAware ADS-B
Wed 10:39:57 PM 32.7080 -97.1530 145° Southeast 415 478 14,300 1,946 Climbing FlightAware ADS-B
Wed 10:40:45 PM 32.6270 -97.0890 146° Southeast 422 486 15,900 1,786 Climbing FlightAware ADS-B
Wed 10:41:21 PM 32.5670 -97.0410 146° Southeast 433 498 16,800 1,588 Climbing FlightAware ADS-B
Wed 10:41:53 PM 32.5140 -97.0070 152° Southeast 436 502 17,700 1,742 Climbing FlightAware ADS-B
Wed 10:42:23 PM 32.4560 -96.9770 156° South 443 510 18,600 1,636 Climbing FlightAware ADS-B
Wed 10:42:59 PM 32.3860 -96.9430 158° South 448 516 19,500 1,477 Climbing FlightAware ADS-B
Wed 10:43:28 PM 32.3296 -96.9149 157° South 454 522 20,200 1,500 Climbing FlightAware ADS-B
Wed 10:44:07 PM 32.2530 -96.8770 157° South 461 531 21,200 1,560 Climbing FlightAware ADS-B
Wed 10:44:18 PM 32.2317 -96.8661 157° South 463 533 21,500 1,358 Climbing FlightAware ADS-B
Wed 10:45:00 PM 32.1474 -96.8241 157° South 467 537 22,400 1,333 Climbing FlightAware ADS-B
Wed 10:45:30 PM 32.0864 -96.7936 157° South 472 543 23,100 1,452 Climbing FlightAware ADS-B
Wed 10:46:02 PM 32.0221 -96.7618 157° South 475 547 23,900 1,324 Climbing FlightAware ADS-B
Wed 10:46:38 PM 31.9488 -96.7256 157° South 478 550 24,600 1,120 Climbing FlightAware ADS-B
Wed 10:47:17 PM 31.8696 -96.6864 157° South 485 558 25,300 1,105 Climbing FlightAware ADS-B
Wed 10:47:54 PM 31.7905 -96.6473 157° South 491 565 26,000 1,091 Climbing FlightAware ADS-B
Wed 10:48:56 PM 31.6593 -96.5828 157° South 500 575 27,100 1,043 Climbing FlightAware ADS-B
Wed 10:49:26 PM 31.5948 -96.5512 157° South 502 578 27,600 885 Climbing FlightAware ADS-B
Wed 10:49:57 PM 31.5281 -96.5197 158° South 509 586 28,000 871 Climbing FlightAware ADS-B
Wed 10:50:28 PM 31.4597 -96.4919 161° South 514 592 28,500 984 Climbing FlightAware ADS-B
Wed 10:50:58 PM 31.3902 -96.4657 162° South 517 595 29,000 971 Climbing FlightAware ADS-B
Wed 10:51:36 PM 31.3031 -96.4333 162° South 521 600 29,600 1,059 Climbing FlightAware ADS-B
Wed 10:52:06 PM 31.2339 -96.4075 162° South 522 601 30,200 1,200 Climbing FlightAware ADS-B
Wed 10:52:16 PM 31.2129 -96.3982 159° South 520 598 30,400 1,333 Climbing FlightAware ADS-B
Wed 10:52:24 PM 31.1945 -96.3875 154° Southeast 518 596 30,600 1,412 Climbing FlightAware ADS-B
Wed 10:52:33 PM 31.1762 -96.3742 148° Southeast 516 594 30,800 1,263 Climbing FlightAware ADS-B
Wed 10:52:43 PM 31.1570 -96.3572 143° Southeast 515 593 31,000 214 Climbing FlightAware ADS-B
Wed 10:53:29 PM 31.0885 -96.2589 126° Southeast 511 588 31,000  Level FlightAware ADS-B
Wed 10:54:00 PM 31.0467 -96.1905 125° Southeast 513 590 31,000  Level FlightAware ADS-B
Wed 10:54:30 PM 31.0053 -96.1226 125° Southeast 514 592 31,000  Level FlightAware ADS-B
Wed 10:55:31 PM 30.9210 -95.9853 126° Southeast 515 593 31,000  Level FlightAware ADS-B
Wed 10:56:33 PM 30.8354 -95.8470 126° Southeast 515 593 31,000  Level FlightAware ADS-B
Wed 10:57:03 PM 30.7924 -95.7779 126° Southeast 514 592 31,000  Level FlightAware ADS-B
Wed 10:57:34 PM 30.7502 -95.7101 126° Southeast 514 592 31,000  Level FlightAware ADS-B
Wed 10:58:04 PM 30.7077 -95.6420 126° Southeast 514 592 31,000  Level FlightAware ADS-B
Wed 11:00:39 PM 30.4915 -95.2971 126° Southeast 513 590 31,000  Level FlightAware ADS-B
Wed 11:01:09 PM 30.4493 -95.2300 126° Southeast 513 590 31,000  Level FlightAware ADS-B
Wed 11:01:39 PM 30.4073 -95.1634 126° Southeast 513 590 31,000  Level FlightAware ADS-B
Wed 11:02:12 PM 30.3610 -95.0902 126° Southeast 513 590 31,000  Level FlightAware ADS-B
Wed 11:02:43 PM 30.3186 -95.0232 126° Southeast 513 590 31,000  Level FlightAware ADS-B
Wed 11:03:43 PM 30.2340 -94.8898 126° Southeast 513 590 31,000  Level FlightAware ADS-B
Wed 11:04:44 PM 30.1489 -94.7561 126° Southeast 512 589 31,000  Level FlightAware ADS-B
Wed 11:05:14 PM 30.1065 -94.6898 126° Southeast 513 590 31,000  Level FlightAware ADS-B
Wed 11:05:44 PM 30.0639 -94.6232 126° Southeast 513 590 31,000  Level FlightAware ADS-B
Wed 11:08:16 PM 29.8492 -94.2891 127° Southeast 513 590 31,000  Level FlightAware ADS-B
Wed 11:08:47 PM 29.8056 -94.2215 127° Southeast 512 589 31,000  Level FlightAware ADS-B
Wed 11:09:18 PM 29.7621 -94.1542 127° Southeast 512 589 31,000  Level FlightAware ADS-B
Wed 11:09:49 PM 29.7185 -94.0871 127° Southeast 513 590 31,000  Level FlightAware ADS-B
Wed 11:10:23 PM 29.6623 -94.0189 136° Southeast 516 594 31,000  Level FlightAware ADS-B
Wed 11:10:53 PM 29.6049 -93.9679 142° Southeast 519 597 31,000  Level FlightAware ADS-B
Wed 11:11:55 PM 29.4868 -93.8669 143° Southeast 520 598 31,000  Level FlightAware ADS-B
Wed 11:12:27 PM 29.4235 -93.8130 143° Southeast 519 597 31,000  Level FlightAware ADS-B
Wed 11:12:58 PM 29.3658 -93.7639 143° Southeast 519 597 31,000  Level FlightAware ADS-B
Wed 11:13:30 PM 29.3037 -93.7111 143° Southeast 519 597 31,000  Level FlightAware ADS-B
Wed 11:14:02 PM 29.2406 -93.6574 143° Southeast 520 598 31,000  Level FlightAware ADS-B
Wed 11:14:33 PM 29.1819 -93.6077 144° Southeast 520 598 31,000  Level FlightAware ADS-B
Wed 11:15:04 PM 29.1216 -93.5566 143° Southeast 520 598 31,000  Level FlightAware ADS-B
Wed 11:15:34 PM 29.0626 -93.5069 144° Southeast 519 597 31,000  Level FlightAware ADS-B
Wed 11:16:05 PM 29.0032 -93.4567 144° Southeast 519 597 31,000  Level FlightAware ADS-B
Wed 11:16:36 PM 28.9444 -93.4072 144° Southeast 518 596 31,000  Level FlightAware ADS-B
Wed 11:17:18 PM 28.8634 -93.3391 144° Southeast 518 596 31,000  Level FlightAware ADS-B
Wed 11:18:37 PM 28.7344 -93.2306 144° Southeast 516 594 31,000 -43 Level Houston Center
Wed 11:19:38 PM 28.6181 -93.1339 144° Southeast 517 595 30,900 -49 Descending Houston Center
Wed 11:20:39 PM 28.4797 -93.0178 144° Southeast 516 594 30,900 49 Level Houston Center
Wed 11:21:40 PM 28.3633 -92.9200 144° Southeast 518 596 31,000 49 Climbing Houston Center
Wed 11:22:41 PM 28.2464 -92.8258 145° Southeast 517 595 31,000  Level Houston Center
Wed 11:23:42 PM 28.1322 -92.7281 143° Southeast 515 593 31,000 -49 Level Houston Center
Wed 11:24:43 PM 28.0158 -92.6344 145° Southeast 515 593 30,900  Descending Houston Center
Wed 11:25:43 PM 27.9003 -92.5406 144° Southeast 512 589 31,000 50 Climbing Houston Center
Wed 11:26:44 PM 27.7864 -92.4447 143° Southeast 511 588 31,000 -49 Level Houston Center
Wed 11:27:45 PM 27.6711 -92.3525 145° Southeast 509 586 30,900 -49 Descending Houston Center
Wed 11:28:46 PM 27.5553 -92.2583 144° Southeast 512 589 30,900 49 Level Houston Center
Wed 11:29:47 PM 27.4392 -92.1636 144° Southeast 513 590 31,000 49 Climbing Houston Center
Wed 11:30:48 PM 27.3239 -92.0706 144° Southeast 512 589 31,000 -49 Level Houston Center
Wed 11:31:49 PM 27.2086 -91.9778 144° Southeast 511 588 30,900  Descending Houston Center
Wed 11:32:50 PM 27.0933 -91.8836 144° Southeast 511 588 31,000  Climbing Houston Center
Wed 11:33:51 PM 26.9728 -91.7878 145° Southeast 510 587 30,900  Descending Houston Center
Wed 11:34:52 PM 26.8569 -91.6942 144° Southeast 510 587 31,000 50 Climbing Houston Center
Wed 11:35:52 PM 26.7203 -91.5847 144° Southeast 510 587 31,000  Level Houston Center
Wed 11:37:00 PM 26.6001 -91.4867 144° Southeast  Level FlightAware Approximate
Wed 11:44:00 PM 25.8523 -90.8923 145° Southeast  Level FlightAware Approximate
Wed 11:45:00 PM 25.7449 -90.8085 145° Southeast  Level FlightAware Approximate
Wed 11:46:00 PM 25.6375 -90.7248 145° Southeast  Level FlightAware Approximate
Wed 11:47:00 PM 25.5301 -90.6413 145° Southeast  Level FlightAware Approximate
Wed 11:48:00 PM 25.4226 -90.5580 145° Southeast  Level FlightAware Approximate
Wed 11:49:00 PM 25.3151 -90.4748 145° Southeast  Level FlightAware Approximate
Wed 11:50:00 PM 25.2075 -90.3917 145° Southeast  Level FlightAware Approximate
Wed 11:51:00 PM 25.0999 -90.3088 145° Southeast  Level FlightAware Approximate
Wed 11:52:00 PM 24.9922 -90.2261 145° Southeast  Level FlightAware Approximate
Wed 11:53:00 PM 24.8845 -90.1434 145° Southeast  Level FlightAware Approximate
Wed 11:54:00 PM 24.7767 -90.0610 145° Southeast  Level FlightAware Approximate
Wed 11:55:00 PM 24.6689 -89.9786 145° Southeast  Level FlightAware Approximate
Wed 11:56:00 PM 24.5610 -89.8964 145° Southeast  Level FlightAware Approximate
Wed 11:57:00 PM 24.4547 -89.8123 146° Southeast  Level FlightAware Approximate
Wed 11:58:00 PM 24.3455 -89.7323 146° Southeast  Level FlightAware Approximate
Wed 11:59:00 PM 24.2363 -89.6525 146° Southeast  Level FlightAware Approximate
Thu 12:00:00 AM 24.1271 -89.5728 146° Southeast  Level FlightAware Approximate
Thu 12:01:00 AM 24.0183 -89.4925 145° Southeast  Level FlightAware Approximate
Thu 12:02:00 AM 23.9105 -89.4106 145° Southeast  Level FlightAware Approximate
Thu 12:03:00 AM 23.8027 -89.3289 145° Southeast  Level FlightAware Approximate
Thu 12:04:00 AM 23.6948 -89.2473 145° Southeast  Level FlightAware Approximate
Thu 12:05:00 AM 23.5869 -89.1658 145° Southeast  Level FlightAware Approximate
Thu 12:06:00 AM 23.4790 -89.0844 145° Southeast  Level FlightAware Approximate
Thu 12:07:00 AM 23.3710 -89.0032 145° Southeast  Level FlightAware Approximate
Thu 12:07:37 AM 23.4120 -88.5050 147° Southeast 499 574 31,000  Level FlightAware ADS-B
Thu 12:08:21 AM 23.3240 -88.4430 147° Southeast 497 572 31,000  Level FlightAware ADS-B
Thu 12:08:53 AM 23.2630 -88.4000 147° Southeast 495 570 31,000  Level FlightAware ADS-B
Thu 12:09:27 AM 23.1940 -88.3520 147° Southeast 496 571 31,000  Level FlightAware ADS-B
Thu 12:10:08 AM 23.1140 -88.2960 147° Southeast 497 572 31,000  Level FlightAware ADS-B
Thu 12:10:38 AM 23.0580 -88.2560 147° Southeast 498 573 31,000  Level FlightAware ADS-B
Thu 12:11:16 AM 22.9840 -88.2040 147° Southeast 498 573 31,000  Level FlightAware ADS-B
Thu 12:11:52 AM 22.9190 -88.1590 147° Southeast 498 573 31,000  Level FlightAware ADS-B
Thu 12:12:34 AM 22.8330 -88.0990 147° Southeast 499 574 31,000  Level FlightAware ADS-B
Thu 12:13:04 AM 22.7780 -88.0610 147° Southeast 499 574 31,000  Level FlightAware ADS-B
Thu 12:13:36 AM 22.7110 -88.0140 147° Southeast 499 574 31,000  Level FlightAware ADS-B
Thu 12:14:18 AM 22.6280 -87.9570 148° Southeast 500 575 31,000  Level FlightAware ADS-B
Thu 12:14:50 AM 22.5630 -87.9120 147° Southeast 500 575 31,000  Level FlightAware ADS-B
Thu 12:15:30 AM 22.4900 -87.8610 147° Southeast 498 573 31,000  Level FlightAware ADS-B
Thu 12:16:09 AM 22.4150 -87.8090 147° Southeast 498 573 31,000  Level FlightAware ADS-B
Thu 12:16:43 AM 22.3480 -87.7630 148° Southeast 500 575 31,000  Level FlightAware ADS-B
Thu 12:17:17 AM 22.2820 -87.7170 147° Southeast 499 574 31,000  Level FlightAware ADS-B
Thu 12:17:55 AM 22.2070 -87.6650 147° Southeast 499 574 31,000  Level FlightAware ADS-B
Thu 12:18:30 AM 22.1410 -87.6200 148° Southeast 498 573 31,000  Level FlightAware ADS-B
Thu 12:19:06 AM 22.0740 -87.5740 148° Southeast 498 573 31,000  Level FlightAware ADS-B
Thu 12:19:38 AM 22.0060 -87.5270 147° Southeast 497 572 31,000  Level FlightAware ADS-B
Thu 12:20:13 AM 21.9430 -87.4840 148° Southeast 497 572 31,000  Level FlightAware ADS-B
Thu 12:20:47 AM 21.8760 -87.4380 147° Southeast 498 573 31,000  Level FlightAware ADS-B
Thu 12:21:23 AM 21.8050 -87.3890 147° Southeast 497 572 31,000  Level FlightAware ADS-B
Thu 12:21:56 AM 21.7400 -87.3450 148° Southeast 498 573 31,000  Level FlightAware ADS-B
Thu 12:22:37 AM 21.6670 -87.2950 148° Southeast 499 574 31,000  Level FlightAware ADS-B
Thu 12:23:12 AM 21.5760 -87.2330 148° Southeast 498 573 31,000  Level FlightAware ADS-B
Thu 12:23:44 AM 21.5130 -87.1900 148° Southeast 497 572 31,000  Level FlightAware ADS-B
Thu 12:24:20 AM 21.4440 -87.1430 148° Southeast 495 570 31,000  Level FlightAware ADS-B
Thu 12:24:56 AM 21.3730 -87.0950 148° Southeast 495 570 31,000  Level FlightAware ADS-B
Thu 12:25:28 AM 21.3100 -87.0520 148° Southeast 496 571 31,000  Level FlightAware ADS-B
Thu 12:26:04 AM 21.2410 -87.0050 148° Southeast 496 571 31,000  Level FlightAware ADS-B
Thu 12:26:40 AM 21.1720 -86.9580 148° Southeast 496 571 31,000  Level FlightAware ADS-B
Thu 12:27:16 AM 21.1010 -86.9100 148° Southeast 496 571 31,000  Level FlightAware ADS-B
Thu 12:27:52 AM 21.0320 -86.8610 146° Southeast 496 571 31,000  Level FlightAware ADS-B
Thu 12:28:25 AM 20.9740 -86.8090 140° Southeast 495 570 31,000  Level FlightAware ADS-B
Thu 12:29:01 AM 20.9140 -86.7510 138° Southeast 487 560 31,000  Level FlightAware ADS-B
Thu 12:29:35 AM 20.8570 -86.6960 138° Southeast 484 557 31,000  Level FlightAware ADS-B
Thu 12:30:09 AM 20.8000 -86.6400 137° Southeast 484 557 31,000  Level FlightAware ADS-B
Thu 12:30:43 AM 20.7440 -86.5860 138° Southeast 484 557 31,000  Level FlightAware ADS-B
Thu 12:31:19 AM 20.6870 -86.5300 137° Southeast 485 558 31,000  Level FlightAware ADS-B
Thu 12:31:55 AM 20.6260 -86.4710 138° Southeast 489 563 31,000  Level FlightAware ADS-B
Thu 12:32:29 AM 20.5690 -86.4160 138° Southeast 490 564 31,000  Level FlightAware ADS-B
Thu 12:32:59 AM 20.5180 -86.3680 139° Southeast 490 564 31,000  Level FlightAware ADS-B
Thu 12:33:40 AM 20.4530 -86.3050 138° Southeast 489 563 31,000  Level FlightAware ADS-B
Thu 12:34:22 AM 20.3910 -86.2440 137° Southeast 489 563 31,000  Level FlightAware ADS-B
Thu 12:35:14 AM 20.3050 -86.1610 138° Southeast 488 562 31,000  Level FlightAware ADS-B
Thu 12:35:43 AM 20.2440 -86.1040 139° Southeast 499 574 31,000  Level FlightAware ADS-B
Thu 12:36:21 AM 20.1740 -86.0370 138° Southeast 500 575 31,000  Level FlightAware ADS-B
Thu 12:36:58 AM 20.1110 -85.9770 138° Southeast 499 574 31,000  Level FlightAware ADS-B
Thu 12:37:33 AM 20.0520 -85.9200 138° Southeast 489 563 31,000  Level FlightAware ADS-B
Thu 12:38:05 AM 19.9980 -85.8690 138° Southeast 485 558 31,000  Level FlightAware ADS-B
Thu 12:38:41 AM 19.9370 -85.8110 138° Southeast 485 558 31,000  Level FlightAware ADS-B
Thu 12:39:18 AM 19.8760 -85.7530 138° Southeast 487 560 31,000  Level FlightAware ADS-B
Thu 12:39:51 AM 19.8180 -85.6990 139° Southeast 497 572 31,000  Level FlightAware ADS-B
Thu 12:40:25 AM 19.7610 -85.6450 138° Southeast 503 579 31,000  Level FlightAware ADS-B
Thu 12:41:18 AM 19.6740 -85.5620 138° Southeast 505 581 31,000  Level FlightAware ADS-B
Thu 12:41:54 AM 19.6200 -85.5120 139° Southeast 505 581 31,000  Level FlightAware ADS-B
Thu 12:42:42 AM 19.5190 -85.4180 139° Southeast 506 582 31,000  Level FlightAware ADS-B
Thu 12:43:34 AM 19.4280 -85.3330 139° Southeast 505 581 31,000  Level FlightAware ADS-B
Thu 12:44:14 AM 19.3570 -85.2670 139° Southeast 502 578 31,000  Level FlightAware ADS-B
Thu 12:44:59 AM 19.2890 -85.2020 138° Southeast 502 578 31,000  Level FlightAware ADS-B
Thu 12:45:37 AM 19.2330 -85.1490 138° Southeast 502 578 31,000  Level FlightAware ADS-B
Thu 12:46:14 AM 19.1790 -85.0970 138° Southeast 502 578 31,000  Level FlightAware ADS-B
Thu 12:46:51 AM 19.1240 -85.0450 138° Southeast 502 578 31,000  Level FlightAware ADS-B
Thu 12:47:27 AM 19.0720 -84.9950 138° Southeast 502 578 31,000  Level FlightAware ADS-B
Thu 12:48:03 AM 19.0190 -84.9450 138° Southeast 502 578 31,000  Level FlightAware ADS-B
Thu 12:48:39 AM 18.9660 -84.8950 138° Southeast 502 578 31,000  Level FlightAware ADS-B
Thu 12:49:15 AM 18.9130 -84.8440 138° Southeast 502 578 31,000  Level FlightAware ADS-B
Thu 12:49:49 AM 18.8630 -84.7970 138° Southeast 502 578 31,000  Level FlightAware ADS-B
Thu 12:50:25 AM 18.8110 -84.7470 138° Southeast 502 578 31,000  Level FlightAware ADS-B
Thu 12:51:01 AM 18.7580 -84.6960 138° Southeast 502 578 31,000  Level FlightAware ADS-B
Thu 12:51:37 AM 18.7050 -84.6460 138° Southeast 502 578 31,000  Level FlightAware ADS-B
Thu 12:52:13 AM 18.6520 -84.5960 138° Southeast 502 578 31,000  Level FlightAware ADS-B
Thu 12:52:50 AM 18.5980 -84.5440 138° Southeast 502 578 31,000  Level FlightAware ADS-B
Thu 12:53:26 AM 18.5450 -84.4940 138° Southeast 502 578 31,000  Level FlightAware ADS-B
Thu 12:54:02 AM 18.4920 -84.4440 138° Southeast 502 578 31,000  Level FlightAware ADS-B
Thu 12:56:00 AM 18.3473 -84.2188 125° Southeast  Level FlightAware Approximate
Thu 12:57:00 AM 18.2726 -84.1052 125° Southeast  Level FlightAware Approximate
Thu 12:58:00 AM 18.1978 -83.9917 125° Southeast  Level FlightAware Approximate
Thu 12:59:00 AM 18.1230 -83.8782 125° Southeast  Level FlightAware Approximate
Thu 01:00:00 AM 18.0481 -83.7649 125° Southeast  Level FlightAware Approximate
Thu 01:01:00 AM 17.9732 -83.6516 125° Southeast  Level FlightAware Approximate
Thu 01:02:00 AM 17.8853 -83.5499 135° Southeast  Level FlightAware Approximate
Thu 01:03:00 AM 17.7917 -83.4533 136° Southeast  Level FlightAware Approximate
Thu 01:04:00 AM 17.6980 -83.3568 136° Southeast  Level FlightAware Approximate
Thu 01:05:00 AM 17.6043 -83.2604 136° Southeast  Level FlightAware Approximate
Thu 01:06:00 AM 17.5106 -83.1641 136° Southeast  Level FlightAware Approximate
Thu 01:07:00 AM 17.4168 -83.0680 136° Southeast  Level FlightAware Approximate
Thu 01:08:00 AM 17.3206 -82.9745 139° Southeast  Level FlightAware Approximate
Thu 01:09:00 AM 17.2218 -82.8842 139° Southeast  Level FlightAware Approximate
Thu 01:10:00 AM 17.1229 -82.7939 139° Southeast  Level FlightAware Approximate
Thu 01:11:00 AM 17.0239 -82.7038 139° Southeast  Level FlightAware Approximate
Thu 01:12:00 AM 16.9249 -82.6137 139° Southeast  Level FlightAware Approximate
Thu 01:13:00 AM 16.8259 -82.5237 139° Southeast  Level FlightAware Approximate
Thu 01:14:00 AM 16.7269 -82.4339 139° Southeast  Level FlightAware Approximate
Thu 01:15:00 AM 16.6278 -82.3441 139° Southeast  Level FlightAware Approximate
Thu 01:16:00 AM 16.5286 -82.2544 139° Southeast  Level FlightAware Approximate
Thu 01:17:00 AM 16.4311 -82.1630 134° Southeast  Level FlightAware Approximate
Thu 01:18:00 AM 16.3397 -82.0649 134° Southeast  Level FlightAware Approximate
Thu 01:19:00 AM 16.2482 -81.9669 134° Southeast  Level FlightAware Approximate
Thu 01:20:00 AM 16.1567 -81.8690 134° Southeast  Level FlightAware Approximate
Thu 01:21:00 AM 16.0651 -81.7711 134° Southeast  Level FlightAware Approximate
Thu 01:22:00 AM 15.9735 -81.6734 134° Southeast  Level FlightAware Approximate
Thu 01:23:00 AM 15.8819 -81.5757 134° Southeast  Level FlightAware Approximate
Thu 01:24:00 AM 15.7902 -81.4782 134° Southeast  Level FlightAware Approximate
Thu 01:25:00 AM 15.6988 -81.3804 133° Southeast  Level FlightAware Approximate
Thu 01:26:00 AM 15.6086 -81.2814 133° Southeast  Level FlightAware Approximate
Thu 01:27:00 AM 15.5184 -81.1825 133° Southeast  Level FlightAware Approximate
Thu 01:28:00 AM 15.4282 -81.0836 133° Southeast  Level FlightAware Approximate
Thu 01:29:00 AM 15.3379 -80.9849 133° Southeast  Level FlightAware Approximate
Thu 01:30:00 AM 15.2477 -80.8864 134° Southeast  Level FlightAware Approximate
Thu 01:31:00 AM 15.1574 -80.7880 134° Southeast  Level FlightAware Approximate
Thu 01:32:00 AM 15.0672 -80.6897 134° Southeast  Level FlightAware Approximate
Thu 01:33:00 AM 14.9736 -80.5953 142° Southeast  Level FlightAware Approximate
Thu 01:34:00 AM 14.8703 -80.5119 142° Southeast  Level FlightAware Approximate
Thu 01:35:00 AM 14.7670 -80.4287 142° Southeast  Level FlightAware Approximate
Thu 01:36:00 AM 14.6636 -80.3455 142° Southeast  Level FlightAware Approximate
Thu 01:37:00 AM 14.5603 -80.2623 142° Southeast  Level FlightAware Approximate
Thu 01:38:00 AM 14.4569 -80.1793 142° Southeast  Level FlightAware Approximate
Thu 01:39:00 AM 14.3534 -80.0963 142° Southeast  Level FlightAware Approximate
Thu 01:40:00 AM 14.2500 -80.0134 142° Southeast  Level FlightAware Approximate
Thu 01:41:00 AM 14.1465 -79.9306 142° Southeast  Level FlightAware Approximate
Thu 01:42:00 AM 14.0430 -79.8479 142° Southeast  Level FlightAware Approximate
Thu 01:43:00 AM 13.9394 -79.7652 142° Southeast  Level FlightAware Approximate
Thu 01:44:00 AM 13.8358 -79.6826 142° Southeast  Level FlightAware Approximate
Thu 01:45:00 AM 13.7322 -79.6001 142° Southeast  Level FlightAware Approximate
Thu 01:46:00 AM 13.6286 -79.5176 142° Southeast  Level FlightAware Approximate
Thu 01:47:00 AM 13.5250 -79.4353 142° Southeast  Level FlightAware Approximate
Thu 01:48:00 AM 13.4213 -79.3530 142° Southeast  Level FlightAware Approximate
Thu 01:49:00 AM 13.3176 -79.2707 142° Southeast  Level FlightAware Approximate
Thu 01:50:00 AM 13.2138 -79.1886 142° Southeast  Level FlightAware Approximate
Thu 01:51:00 AM 13.1101 -79.1065 142° Southeast  Level FlightAware Approximate
Thu 01:52:00 AM 13.0063 -79.0245 142° Southeast  Level FlightAware Approximate
Thu 01:53:00 AM 12.9025 -78.9425 142° Southeast  Level FlightAware Approximate
Thu 01:54:00 AM 12.7986 -78.8606 142° Southeast  Level FlightAware Approximate
Thu 01:55:00 AM 12.6948 -78.7788 142° Southeast  Level FlightAware Approximate
Thu 01:56:00 AM 12.5909 -78.6971 142° Southeast  Level FlightAware Approximate
Thu 01:57:00 AM 12.4870 -78.6154 142° Southeast  Level FlightAware Approximate
Thu 01:58:00 AM 12.3830 -78.5338 143° Southeast  Level FlightAware Approximate
Thu 01:59:00 AM 12.2791 -78.4522 143° Southeast  Level FlightAware Approximate
Thu 02:00:00 AM 12.1751 -78.3707 143° Southeast  Level FlightAware Approximate
Thu 02:01:00 AM 12.0711 -78.2893 143° Southeast  Level FlightAware Approximate
Thu 02:02:00 AM 11.9670 -78.2079 143° Southeast  Level FlightAware Approximate
Thu 02:03:00 AM 11.8630 -78.1266 143° Southeast  Level FlightAware Approximate
Thu 02:04:00 AM 11.7589 -78.0454 143° Southeast  Level FlightAware Approximate
Thu 02:05:00 AM 11.6548 -77.9642 143° Southeast  Level FlightAware Approximate
Thu 02:05:20 AM 10.9680 -77.4220 143° Southeast 503 579 31,000  Level FlightAware ADS-B
Thu 02:06:00 AM 11.5506 -77.8831 143° Southeast  Level FlightAware Approximate
Thu 02:06:06 AM 10.8900 -77.3470 137° Southeast 512 589 31,000  Level FlightAware ADS-B
Thu 02:06:41 AM 10.8420 -77.2770 125° Southeast 513 590 31,000  Level FlightAware ADS-B
Thu 02:07:16 AM 10.7960 -77.2100 125° Southeast 512 589 31,000  Level FlightAware ADS-B
Thu 02:08:04 AM 10.7360 -77.1200 124° Southeast 513 590 31,000  Level FlightAware ADS-B
Thu 02:08:40 AM 10.6960 -77.0580 123° Southeast 513 590 31,000  Level FlightAware ADS-B
Thu 02:09:11 AM 10.6420 -76.9800 125° Southeast 514 592 31,000  Level FlightAware ADS-B
Thu 02:09:46 AM 10.5980 -76.9150 125° Southeast 514 592 31,000  Level FlightAware ADS-B
Thu 02:10:21 AM 10.5510 -76.8440 124° Southeast 509 586 31,000  Level FlightAware ADS-B
Thu 02:10:57 AM 10.5020 -76.7700 124° Southeast 507 583 31,000  Level FlightAware ADS-B
Thu 02:11:38 AM 10.4480 -76.6870 123° Southeast 506 582 31,000  Level FlightAware ADS-B
Thu 02:12:17 AM 10.3950 -76.6080 124° Southeast 506 582 31,000  Level FlightAware ADS-B
Thu 02:12:57 AM 10.3420 -76.5270 124° Southeast 507 583 31,000  Level FlightAware ADS-B
Thu 02:13:32 AM 10.3020 -76.4660 124° Southeast 506 582 31,000  Level FlightAware ADS-B
Thu 02:14:07 AM 10.2500 -76.3870 124° Southeast 510 587 31,000  Level FlightAware ADS-B
Thu 02:14:43 AM 10.2040 -76.3170 124° Southeast 511 588 31,000  Level FlightAware ADS-B
Thu 02:15:17 AM 10.1620 -76.2510 123° Southeast 514 592 31,000  Level FlightAware ADS-B
Thu 02:15:52 AM 10.1160 -76.1770 122° Southeast 513 590 31,000  Level FlightAware ADS-B
Thu 02:16:27 AM 10.0740 -76.1060 121° Southeast 512 589 31,000  Level FlightAware ADS-B
Thu 02:17:02 AM 10.0280 -76.0310 122° Southeast 511 588 31,000  Level FlightAware ADS-B
Thu 02:17:37 AM 9.9860 -75.9600 121° Southeast 510 587 31,000  Level FlightAware ADS-B
Thu 02:18:14 AM 9.9450 -75.8900 121° Southeast 509 586 31,000  Level FlightAware ADS-B
Thu 02:18:47 AM 9.9060 -75.8160 118° Southeast 507 583 31,000  Level FlightAware ADS-B
Thu 02:19:22 AM 9.8660 -75.7410 118° Southeast 509 586 31,000  Level FlightAware ADS-B
Thu 02:19:58 AM 9.8270 -75.6660 118° Southeast 510 587 31,000  Level FlightAware ADS-B
Thu 02:20:32 AM 9.7890 -75.5940 118° Southeast 515 593 31,000  Level FlightAware ADS-B
Thu 02:21:07 AM 9.7560 -75.5230 115° Southeast 514 592 31,000  Level FlightAware ADS-B
Thu 02:21:37 AM 9.7240 -75.4500 114° Southeast 512 589 31,000  Level FlightAware ADS-B
Thu 02:22:22 AM 9.6900 -75.3540 110° East 511 588 31,000  Level FlightAware ADS-B
Thu 02:23:07 AM 9.6570 -75.2520 108° East 508 585 31,000  Level FlightAware ADS-B
Thu 02:23:42 AM 9.6410 -75.1670 101° East 511 588 31,000  Level FlightAware ADS-B
Thu 02:24:27 AM 9.6270 -75.0740 99° East 511 588 31,000  Level FlightAware ADS-B
Thu 02:25:02 AM 9.6110 -74.9770 99° East 510 587 31,000  Level FlightAware ADS-B
Thu 02:25:32 AM 9.6010 -74.9090 98° East 510 587 31,000  Level FlightAware ADS-B
Thu 02:26:07 AM 9.5930 -74.8260 96° East 513 590 31,000  Level FlightAware ADS-B
Thu 02:26:42 AM 9.5930 -74.7370 90° East 515 593 31,000  Level FlightAware ADS-B
Thu 02:27:22 AM 9.5950 -74.6420 89° East 513 590 31,000  Level FlightAware ADS-B
Thu 02:27:48 AM 9.5950 -74.5810 90° East 511 588 31,000  Level FlightAware ADS-B
Thu 02:28:37 AM 9.5960 -74.4620 90° East 511 588 31,000  Level FlightAware ADS-B
Thu 02:29:12 AM 9.5920 -74.3780 93° East 509 586 31,000  Level FlightAware ADS-B
Thu 02:29:47 AM 9.5640 -74.3000 110° East 510 587 31,000  Level FlightAware ADS-B
Thu 02:30:22 AM 9.5120 -74.2370 130° Southeast 509 586 31,000  Level FlightAware ADS-B
Thu 02:30:52 AM 9.4550 -74.1970 145° Southeast 506 582 31,000  Level FlightAware ADS-B
Thu 02:31:27 AM 9.3900 -74.1580 149° Southeast 504 580 31,000  Level FlightAware ADS-B
Thu 02:32:07 AM 9.3030 -74.1050 149° Southeast 502 578 31,000  Level FlightAware ADS-B
Thu 02:32:48 AM 9.2230 -74.0560 149° Southeast 501 577 31,000  Level FlightAware ADS-B
Thu 02:33:22 AM 9.1560 -74.0160 149° Southeast 501 577 31,000  Level FlightAware ADS-B
Thu 02:33:57 AM 9.0840 -73.9760 151° Southeast 502 578 31,000  Level FlightAware ADS-B
Thu 02:34:32 AM 9.0090 -73.9380 153° Southeast 506 582 31,000  Level FlightAware ADS-B
Thu 02:35:07 AM 8.9340 -73.9030 155° Southeast 510 587 31,000  Level FlightAware ADS-B
Thu 02:35:42 AM 8.8630 -73.8730 157° South 512 589 31,000  Level FlightAware ADS-B
Thu 02:36:17 AM 8.7830 -73.8390 157° South 511 588 31,000  Level FlightAware ADS-B
Thu 02:36:52 AM 8.7050 -73.8040 156° South 512 589 31,000  Level FlightAware ADS-B
Thu 02:37:27 AM 8.6310 -73.7710 156° South 514 592 31,000  Level FlightAware ADS-B
Thu 02:38:02 AM 8.5520 -73.7370 157° South 513 590 31,000  Level FlightAware ADS-B
Thu 02:38:52 AM 8.4450 -73.6900 157° South 511 588 31,000  Level FlightAware ADS-B
Thu 02:39:42 AM 8.3490 -73.6490 157° South 511 588 31,000  Level FlightAware ADS-B
Thu 02:39:57 AM 8.3050 -73.6300 157° South 509 586 31,000  Level FlightAware ADS-B
Thu 02:40:48 AM 8.1970 -73.5830 157° South 508 585 31,000  Level FlightAware ADS-B
Thu 02:41:22 AM 8.1190 -73.5490 157° South 510 587 31,000  Level FlightAware ADS-B
Thu 02:41:47 AM 8.0650 -73.5250 156° South 510 587 31,000  Level FlightAware ADS-B
Thu 02:42:50 AM 7.9770 -73.4860 156° South 511 588 31,000  Level FlightAware ADS-B
Thu 02:43:26 AM 7.9110 -73.4560 156° South 511 588 31,000  Level FlightAware ADS-B
Thu 02:44:02 AM 7.8450 -73.4260 156° South 511 588 31,000  Level FlightAware ADS-B
Thu 02:44:38 AM 7.7790 -73.3960 156° South 511 588 31,000  Level FlightAware ADS-B
Thu 02:45:35 AM 7.6020 -73.2780 147° Southeast 506 582 31,000  Level FlightAware ADS-B
Thu 02:46:12 AM 7.5380 -73.2410 150° Southeast 506 582 31,000 15 Level FlightAware ADS-B
Thu 02:49:00 AM 7.2279 -73.0039 141° Southeast  Level Estimated
Thu 02:50:00 AM 7.1277 -72.9207 141° Southeast  Level Estimated
Thu 02:51:00 AM 7.0274 -72.8375 141° Southeast  Level Estimated
Thu 02:52:00 AM 6.9271 -72.7544 141° Southeast  Level Estimated
Thu 02:53:00 AM 6.8268 -72.6714 141° Southeast  Level Estimated
Thu 02:54:00 AM 6.7265 -72.5883 141° Southeast  Level Estimated
Thu 02:55:00 AM 6.6262 -72.5053 141° Southeast  Level Estimated
Thu 02:56:00 AM 6.5259 -72.4224 141° Southeast  Level Estimated
Thu 02:57:00 AM 6.4256 -72.3394 141° Southeast  Level Estimated
Thu 02:58:00 AM 6.3252 -72.2565 141° Southeast  Level Estimated
Thu 02:59:00 AM 6.2248 -72.1737 141° Southeast  Level Estimated
Thu 03:00:00 AM 6.1245 -72.0908 141° Southeast  Level Estimated
Thu 03:01:00 AM 6.0241 -72.0080 141° Southeast  Level Estimated
Thu 03:02:00 AM 5.9237 -71.9252 141° Southeast  Level Estimated
Thu 03:03:00 AM 5.8232 -71.8425 141° Southeast  Level Estimated
Thu 03:04:00 AM 5.7228 -71.7598 141° Southeast  Level Estimated
Thu 03:05:00 AM 5.6224 -71.6771 141° Southeast  Level Estimated
Thu 03:06:00 AM 5.5219 -71.5944 141° Southeast  Level Estimated
Thu 03:07:00 AM 5.4215 -71.5118 141° Southeast  Level Estimated
Thu 03:08:00 AM 5.3210 -71.4292 141° Southeast  Level Estimated
Thu 03:09:00 AM 5.2205 -71.3466 141° Southeast  Level Estimated
Thu 03:10:00 AM 5.1200 -71.2640 141° Southeast  Level Estimated
Thu 03:11:00 AM 5.0195 -71.1815 141° Southeast  Level Estimated
Thu 03:12:00 AM 4.9190 -71.0990 141° Southeast  Level Estimated
Thu 03:13:00 AM 4.8184 -71.0165 141° Southeast  Level Estimated
Thu 03:14:00 AM 4.7179 -70.9341 141° Southeast  Level Estimated
Thu 03:15:00 AM 4.6173 -70.8517 141° Southeast  Level Estimated
Thu 03:16:00 AM 4.5168 -70.7693 141° Southeast  Level Estimated
Thu 03:17:00 AM 4.4162 -70.6869 141° Southeast  Level Estimated
Thu 03:18:00 AM 4.3156 -70.6045 141° Southeast  Level Estimated
Thu 03:19:00 AM 4.2150 -70.5222 141° Southeast  Level Estimated
Thu 03:20:00 AM 4.1144 -70.4399 141° Southeast  Level Estimated
Thu 03:21:00 AM 4.0139 -70.3576 141° Southeast  Level Estimated
Thu 03:22:00 AM 3.9132 -70.2753 141° Southeast  Level Estimated
Thu 03:23:00 AM 3.8126 -70.1931 141° Southeast  Level Estimated
Thu 03:24:00 AM 3.7120 -70.1108 141° Southeast  Level Estimated
Thu 03:25:00 AM 3.6114 -70.0286 141° Southeast  Level Estimated
Thu 03:26:00 AM 3.5107 -69.9464 141° Southeast  Level Estimated
Thu 03:27:00 AM 3.4101 -69.8642 141° Southeast  Level Estimated
Thu 03:28:00 AM 3.3094 -69.7821 141° Southeast  Level Estimated
Thu 03:29:00 AM 3.2088 -69.6999 141° Southeast  Level Estimated
Thu 03:30:00 AM 3.1081 -69.6178 141° Southeast  Level Estimated
Thu 03:31:00 AM 3.0074 -69.5357 141° Southeast  Level Estimated
Thu 03:32:00 AM 2.9067 -69.4536 141° Southeast  Level Estimated
Thu 03:33:00 AM 2.8060 -69.3715 141° Southeast  Level Estimated
Thu 03:34:00 AM 2.7053 -69.2894 141° Southeast  Level Estimated
Thu 03:35:00 AM 2.6046 -69.2074 141° Southeast  Level Estimated
Thu 03:36:00 AM 2.5039 -69.1253 141° Southeast  Level Estimated
Thu 03:37:00 AM 2.4032 -69.0433 141° Southeast  Level Estimated
Thu 03:38:00 AM 2.3023 -68.9612 141° Southeast  Level Estimated
Thu 03:39:00 AM 2.2015 -68.8790 141° Southeast  Level Estimated
Thu 03:40:00 AM 2.1005 -68.7969 141° Southeast  Level Estimated
Thu 03:41:00 AM 1.9997 -68.7147 141° Southeast  Level Estimated
Thu 03:42:00 AM 1.8987 -68.6326 141° Southeast  Level Estimated
Thu 03:43:00 AM 1.7978 -68.5505 141° Southeast  Level Estimated
Thu 03:44:00 AM 1.6969 -68.4684 141° Southeast  Level Estimated
Thu 03:45:00 AM 1.5960 -68.3863 141° Southeast  Level Estimated
Thu 03:46:00 AM 1.4951 -68.3042 141° Southeast  Level Estimated
Thu 03:47:00 AM 1.3942 -68.2222 141° Southeast  Level Estimated
Thu 03:48:00 AM 1.2932 -68.1401 141° Southeast  Level Estimated
Thu 03:49:00 AM 1.1923 -68.0580 141° Southeast  Level Estimated
Thu 03:50:00 AM 1.0914 -67.9760 141° Southeast  Level Estimated
Thu 03:51:00 AM 0.9904 -67.8939 141° Southeast  Level Estimated
Thu 03:52:00 AM 0.8895 -67.8119 141° Southeast  Level Estimated
Thu 03:53:00 AM 0.7886 -67.7298 141° Southeast  Level Estimated
Thu 03:54:00 AM 0.6876 -67.6478 141° Southeast  Level Estimated
Thu 03:55:00 AM 0.5867 -67.5658 141° Southeast  Level Estimated
Thu 03:56:00 AM 0.4857 -67.4837 141° Southeast  Level Estimated
Thu 03:57:00 AM 0.3848 -67.4017 141° Southeast  Level Estimated
Thu 03:58:00 AM 0.2839 -67.3197 141° Southeast  Level Estimated
Thu 03:59:00 AM 0.1829 -67.2376 141° Southeast  Level Estimated
Thu 04:00:00 AM 0.0820 -67.1556 141° Southeast  Level Estimated
Thu 04:01:00 AM -0.0190 -67.0736 141° Southeast  Level Estimated
Thu 04:02:00 AM -0.1199 -66.9916 141° Southeast  Level Estimated
Thu 04:03:00 AM -0.2209 -66.9096 141° Southeast  Level Estimated
Thu 04:04:00 AM -0.3218 -66.8275 141° Southeast  Level Estimated
Thu 04:05:00 AM -0.4228 -66.7455 141° Southeast  Level Estimated
Thu 04:06:00 AM -0.5237 -66.6635 141° Southeast  Level Estimated
Thu 04:07:00 AM -0.6247 -66.5814 141° Southeast  Level Estimated
Thu 04:08:00 AM -0.7256 -66.4994 141° Southeast  Level Estimated
Thu 04:09:00 AM -0.8265 -66.4174 141° Southeast  Level Estimated
Thu 04:10:00 AM -0.9275 -66.3353 141° Southeast  Level Estimated
Thu 04:11:00 AM -1.0284 -66.2533 141° Southeast  Level Estimated
Thu 04:12:00 AM -1.1293 -66.1712 141° Southeast  Level Estimated
Thu 04:13:00 AM -1.2303 -66.0892 141° Southeast  Level Estimated
Thu 04:14:00 AM -1.3312 -66.0071 141° Southeast  Level Estimated
Thu 04:15:00 AM -1.4321 -65.9250 141° Southeast  Level Estimated
Thu 04:16:00 AM -1.5331 -65.8430 141° Southeast  Level Estimated
Thu 04:17:00 AM -1.6340 -65.7609 141° Southeast  Level Estimated
Thu 04:18:00 AM -1.7349 -65.6788 141° Southeast  Level Estimated
Thu 04:19:00 AM -1.8358 -65.5967 141° Southeast  Level Estimated
Thu 04:20:00 AM -1.9367 -65.5146 141° Southeast  Level Estimated
Thu 04:21:00 AM -2.0376 -65.4324 141° Southeast  Level Estimated
Thu 04:22:00 AM -2.1385 -65.3503 141° Southeast  Level Estimated
Thu 04:23:00 AM -2.2394 -65.2682 141° Southeast  Level Estimated
Thu 04:24:00 AM -2.3403 -65.1860 141° Southeast  Level Estimated
Thu 04:25:00 AM -2.4412 -65.1039 141° Southeast  Level Estimated
Thu 04:26:00 AM -2.5421 -65.0217 141° Southeast  Level Estimated
Thu 04:27:00 AM -2.6430 -64.9395 141° Southeast  Level Estimated
Thu 04:28:00 AM -2.7438 -64.8573 141° Southeast  Level Estimated
Thu 04:29:00 AM -2.8447 -64.7751 141° Southeast  Level Estimated
Thu 04:30:00 AM -2.9456 -64.6928 141° Southeast  Level Estimated
Thu 04:31:00 AM -3.0464 -64.6106 141° Southeast  Level Estimated
Thu 04:32:00 AM -3.1473 -64.5283 141° Southeast  Level Estimated
Thu 04:33:00 AM -3.2481 -64.4461 141° Southeast  Level Estimated
Thu 04:34:00 AM -3.3489 -64.3637 141° Southeast  Level Estimated
Thu 04:35:00 AM -3.4498 -64.2814 141° Southeast  Level Estimated
Thu 04:36:00 AM -3.5506 -64.1991 141° Southeast  Level Estimated
Thu 04:37:00 AM -3.6514 -64.1168 141° Southeast  Level Estimated
Thu 04:38:00 AM -3.7522 -64.0344 141° Southeast  Level Estimated
Thu 04:39:00 AM -3.8530 -63.9520 141° Southeast  Level Estimated
Thu 04:40:00 AM -3.9538 -63.8696 141° Southeast  Level Estimated
Thu 04:41:00 AM -4.0546 -63.7872 141° Southeast  Level Estimated
Thu 04:42:00 AM -4.1554 -63.7047 141° Southeast  Level Estimated
Thu 04:43:00 AM -4.2561 -63.6222 141° Southeast  Level Estimated
Thu 04:44:00 AM -4.3569 -63.5397 141° Southeast  Level Estimated
Thu 04:45:00 AM -4.4576 -63.4572 141° Southeast  Level Estimated
Thu 04:46:00 AM -4.5584 -63.3747 141° Southeast  Level Estimated
Thu 04:47:00 AM -4.6591 -63.2921 141° Southeast  Level Estimated
Thu 04:48:00 AM -4.7598 -63.2096 141° Southeast  Level Estimated
Thu 04:49:00 AM -4.8605 -63.1270 141° Southeast  Level Estimated
Thu 04:50:00 AM -4.9612 -63.0443 141° Southeast  Level Estimated
Thu 04:51:00 AM -5.0619 -62.9617 141° Southeast  Level Estimated
Thu 04:52:00 AM -5.1626 -62.8790 141° Southeast  Level Estimated
Thu 04:53:00 AM -5.2633 -62.7963 141° Southeast  Level Estimated
Thu 04:54:00 AM -5.3639 -62.7136 141° Southeast  Level Estimated
Thu 04:55:00 AM -5.4646 -62.6308 141° Southeast  Level Estimated
Thu 04:56:00 AM -5.5652 -62.5480 141° Southeast  Level Estimated
Thu 04:57:00 AM -5.6658 -62.4652 141° Southeast  Level Estimated
Thu 04:58:00 AM -5.7664 -62.3824 141° Southeast  Level Estimated
Thu 04:59:00 AM -5.8671 -62.2995 141° Southeast  Level Estimated
Thu 05:00:00 AM -5.9676 -62.2166 141° Southeast  Level Estimated
Thu 05:01:00 AM -6.0682 -62.1337 141° Southeast  Level Estimated
Thu 05:02:00 AM -6.1688 -62.0507 141° Southeast  Level Estimated
Thu 05:03:00 AM -6.2693 -61.9677 141° Southeast  Level Estimated
Thu 05:04:00 AM -6.3699 -61.8847 141° Southeast  Level Estimated
Thu 05:05:00 AM -6.4704 -61.8016 141° Southeast  Level Estimated
Thu 05:06:00 AM -6.5709 -61.7185 141° Southeast  Level Estimated
Thu 05:07:00 AM -6.6714 -61.6354 141° Southeast  Level Estimated
Thu 05:08:00 AM -6.7719 -61.5522 141° Southeast  Level Estimated
Thu 05:09:00 AM -6.8723 -61.4690 141° Southeast  Level Estimated
Thu 05:10:00 AM -6.9728 -61.3858 141° Southeast  Level Estimated
Thu 05:11:00 AM -7.0732 -61.3025 141° Southeast  Level Estimated
Thu 05:12:00 AM -7.1736 -61.2192 141° Southeast  Level Estimated
Thu 05:13:00 AM -7.2741 -61.1359 141° Southeast  Level Estimated
Thu 05:14:00 AM -7.3745 -61.0525 141° Southeast  Level Estimated
Thu 05:15:00 AM -7.4748 -60.9691 141° Southeast  Level Estimated
Thu 05:16:00 AM -7.5752 -60.8856 141° Southeast  Level Estimated
Thu 05:17:00 AM -7.6755 -60.8021 140° Southeast  Level Estimated
Thu 05:18:00 AM -7.7759 -60.7186 140° Southeast  Level Estimated
Thu 05:19:00 AM -7.8762 -60.6350 140° Southeast  Level Estimated
Thu 05:20:00 AM -7.9765 -60.5514 140° Southeast  Level Estimated
Thu 05:21:00 AM -8.0768 -60.4678 140° Southeast  Level Estimated
Thu 05:22:00 AM -8.1770 -60.3841 140° Southeast  Level Estimated
Thu 05:23:00 AM -8.2773 -60.3003 140° Southeast  Level Estimated
Thu 05:24:00 AM -8.3775 -60.2165 140° Southeast  Level Estimated
Thu 05:25:00 AM -8.4777 -60.1327 140° Southeast  Level Estimated
Thu 05:26:00 AM -8.5779 -60.0489 140° Southeast  Level Estimated
Thu 05:27:00 AM -8.6781 -59.9650 140° Southeast  Level Estimated
Thu 05:28:00 AM -8.7782 -59.8810 140° Southeast  Level Estimated
Thu 05:29:00 AM -8.8784 -59.7970 140° Southeast  Level Estimated
Thu 05:30:00 AM -8.9785 -59.7129 140° Southeast  Level Estimated
Thu 05:31:00 AM -9.0786 -59.6288 140° Southeast  Level Estimated
Thu 05:32:00 AM -9.1787 -59.5447 140° Southeast  Level Estimated
Thu 05:33:00 AM -9.2787 -59.4605 140° Southeast  Level Estimated
Thu 05:34:00 AM -9.3788 -59.3763 140° Southeast  Level Estimated
Thu 05:35:00 AM -9.4788 -59.2920 140° Southeast  Level Estimated
Thu 05:36:00 AM -9.5788 -59.2077 140° Southeast  Level Estimated
Thu 05:37:00 AM -9.6788 -59.1233 140° Southeast  Level Estimated
Thu 05:38:00 AM -9.7789 -59.0387 140° Southeast  Level Estimated
Thu 05:39:00 AM -9.8790 -58.9541 140° Southeast  Level Estimated
Thu 05:40:00 AM -9.9791 -58.8694 140° Southeast  Level Estimated
Thu 05:41:00 AM -10.0792 -58.7846 140° Southeast  Level Estimated
Thu 05:42:00 AM -10.1792 -58.6999 140° Southeast  Level Estimated
Thu 05:43:00 AM -10.2793 -58.6150 140° Southeast  Level Estimated
Thu 05:44:00 AM -10.3793 -58.5301 140° Southeast  Level Estimated
Thu 05:45:00 AM -10.4793 -58.4452 140° Southeast  Level Estimated
Thu 05:46:00 AM -10.5792 -58.3602 140° Southeast  Level Estimated
Thu 05:47:00 AM -10.6792 -58.2751 140° Southeast  Level Estimated
Thu 05:48:00 AM -10.7791 -58.1900 140° Southeast  Level Estimated
Thu 05:49:00 AM -10.8790 -58.1048 140° Southeast  Level Estimated
Thu 05:50:00 AM -10.9788 -58.0196 140° Southeast  Level Estimated
Thu 05:51:00 AM -11.0787 -57.9343 140° Southeast  Level Estimated
Thu 05:52:00 AM -11.1785 -57.8489 140° Southeast  Level Estimated
Thu 05:53:00 AM -11.2783 -57.7635 140° Southeast  Level Estimated
Thu 05:54:00 AM -11.3781 -57.6781 140° Southeast  Level Estimated
Thu 05:55:00 AM -11.4778 -57.5926 140° Southeast  Level Estimated
Thu 05:56:00 AM -11.5775 -57.5070 140° Southeast  Level Estimated
Thu 05:57:00 AM -11.6772 -57.4213 140° Southeast  Level Estimated
Thu 05:58:00 AM -11.7769 -57.3356 140° Southeast  Level Estimated
Thu 05:59:00 AM -11.8766 -57.2499 140° Southeast  Level Estimated
Thu 06:00:00 AM -11.9762 -57.1640 140° Southeast  Level Estimated
Thu 06:01:00 AM -12.0758 -57.0781 140° Southeast  Level Estimated
Thu 06:02:00 AM -12.1754 -56.9922 140° Southeast  Level Estimated
Thu 06:03:00 AM -12.2749 -56.9061 140° Southeast  Level Estimated
Thu 06:04:00 AM -12.3744 -56.8200 140° Southeast  Level Estimated
Thu 06:05:00 AM -12.4739 -56.7339 140° Southeast  Level Estimated
Thu 06:06:00 AM -12.5734 -56.6477 140° Southeast  Level Estimated
Thu 06:07:00 AM -12.6728 -56.5614 140° Southeast  Level Estimated
Thu 06:08:00 AM -12.7722 -56.4750 140° Southeast  Level Estimated
Thu 06:09:00 AM -12.8716 -56.3886 140° Southeast  Level Estimated
Thu 06:10:00 AM -12.9709 -56.3021 140° Southeast  Level Estimated
Thu 06:11:00 AM -13.0703 -56.2156 140° Southeast  Level Estimated
Thu 06:12:00 AM -13.1695 -56.1289 140° Southeast  Level Estimated
Thu 06:13:00 AM -13.2688 -56.0422 140° Southeast  Level Estimated
Thu 06:14:00 AM -13.3680 -55.9555 140° Southeast  Level Estimated
Thu 06:15:00 AM -13.4672 -55.8686 140° Southeast  Level Estimated
Thu 06:16:00 AM -13.5664 -55.7817 140° Southeast  Level Estimated
Thu 06:17:00 AM -13.6656 -55.6947 140° Southeast  Level Estimated
Thu 06:18:00 AM -13.7647 -55.6077 140° Southeast  Level Estimated
Thu 06:19:00 AM -13.8637 -55.5205 140° Southeast  Level Estimated
Thu 06:20:00 AM -13.9628 -55.4333 139° Southeast  Level Estimated
Thu 06:21:00 AM -14.0618 -55.3461 139° Southeast  Level Estimated
Thu 06:22:00 AM -14.1608 -55.2587 139° Southeast  Level Estimated
Thu 06:23:00 AM -14.2598 -55.1712 139° Southeast  Level Estimated
Thu 06:24:00 AM -14.3587 -55.0837 139° Southeast  Level Estimated
Thu 06:25:00 AM -14.4576 -54.9962 139° Southeast  Level Estimated
Thu 06:26:00 AM -14.5564 -54.9085 139° Southeast  Level Estimated
Thu 06:27:00 AM -14.6553 -54.8207 139° Southeast  Level Estimated
Thu 06:28:00 AM -14.7541 -54.7329 139° Southeast  Level Estimated
Thu 06:29:00 AM -14.8528 -54.6450 139° Southeast  Level Estimated
Thu 06:30:00 AM -14.9516 -54.5570 139° Southeast  Level Estimated
Thu 06:31:00 AM -15.0503 -54.4689 139° Southeast  Level Estimated
Thu 06:32:00 AM -15.1489 -54.3808 139° Southeast  Level Estimated
Thu 06:33:00 AM -15.2476 -54.2925 139° Southeast  Level Estimated
Thu 06:34:00 AM -15.3461 -54.2042 139° Southeast  Level Estimated
Thu 06:35:00 AM -15.4447 -54.1158 139° Southeast  Level Estimated
Thu 06:36:00 AM -15.5432 -54.0274 139° Southeast  Level Estimated
Thu 06:37:00 AM -15.6417 -53.9388 139° Southeast  Level Estimated
Thu 06:38:00 AM -15.7402 -53.8501 139° Southeast  Level Estimated
Thu 06:39:00 AM -15.8386 -53.7614 139° Southeast  Level Estimated
Thu 06:40:00 AM -15.9370 -53.6726 139° Southeast  Level Estimated
Thu 06:41:00 AM -16.0353 -53.5837 139° Southeast  Level Estimated
Thu 06:42:00 AM -16.1336 -53.4947 139° Southeast  Level Estimated
Thu 06:43:00 AM -16.2319 -53.4056 139° Southeast  Level Estimated
Thu 06:44:00 AM -16.3301 -53.3164 139° Southeast  Level Estimated
Thu 06:45:00 AM -16.4283 -53.2271 139° Southeast  Level Estimated
Thu 06:46:00 AM -16.5265 -53.1378 139° Southeast  Level Estimated
Thu 06:47:00 AM -16.6246 -53.0484 139° Southeast  Level Estimated
Thu 06:48:00 AM -16.7227 -52.9588 139° Southeast  Level Estimated
Thu 06:49:00 AM -16.8207 -52.8692 139° Southeast  Level Estimated
Thu 06:50:00 AM -16.9187 -52.7795 139° Southeast  Level Estimated
Thu 06:51:00 AM -17.0167 -52.6896 139° Southeast  Level Estimated
Thu 06:52:00 AM -17.1146 -52.5997 139° Southeast  Level Estimated
Thu 06:53:00 AM -17.2125 -52.5097 139° Southeast  Level Estimated
Thu 06:54:00 AM -17.3104 -52.4196 139° Southeast  Level Estimated
Thu 06:55:00 AM -17.4082 -52.3294 139° Southeast  Level Estimated
Thu 06:56:00 AM -17.5059 -52.2391 139° Southeast  Level Estimated
Thu 06:57:00 AM -17.6036 -52.1488 139° Southeast  Level Estimated
Thu 06:58:00 AM -17.7013 -52.0583 139° Southeast  Level Estimated
Thu 06:59:00 AM -17.7990 -51.9677 139° Southeast  Level Estimated
Thu 07:00:00 AM -17.8966 -51.8770 139° Southeast  Level Estimated
Thu 07:01:00 AM -17.9941 -51.7862 138° Southeast  Level Estimated
Thu 07:02:00 AM -18.0917 -51.6953 138° Southeast  Level Estimated
Thu 07:03:00 AM -18.1891 -51.6043 138° Southeast  Level Estimated
Thu 07:04:00 AM -18.2866 -51.5132 138° Southeast  Level Estimated
Thu 07:05:00 AM -18.3839 -51.4221 138° Southeast  Level Estimated
Thu 07:06:00 AM -18.4813 -51.3308 138° Southeast  Level Estimated
Thu 07:06:12 AM -19.0670 -50.6230 138° Southeast 492 566 35,000  Level FlightAware ADS-B
Thu 07:06:48 AM -19.1260 -50.5590 134° Southeast 492 566 35,000  Level FlightAware ADS-B
Thu 07:07:00 AM -18.5786 -51.2394 138° Southeast  Level Estimated
Thu 07:07:36 AM -19.2010 -50.4760 134° Southeast 492 566 35,000  Level FlightAware ADS-B
Thu 07:08:10 AM -19.2560 -50.4170 135° Southeast 493 567 35,000  Level FlightAware ADS-B
Thu 07:08:44 AM -19.3090 -50.3580 134° Southeast 493 567 35,000  Level FlightAware ADS-B
Thu 07:09:20 AM -19.3660 -50.2960 134° Southeast 494 568 35,000  Level FlightAware ADS-B
Thu 07:09:56 AM -19.4240 -50.2320 134° Southeast 494 568 35,000  Level FlightAware ADS-B
Thu 07:10:28 AM -19.4740 -50.1770 134° Southeast 495 570 35,000  Level FlightAware ADS-B
Thu 07:10:56 AM -19.5190 -50.1270 134° Southeast 495 570 35,000  Level FlightAware ADS-B
Thu 07:11:44 AM -19.5870 -50.0520 134° Southeast 495 570 35,000  Level FlightAware ADS-B
Thu 07:12:22 AM -19.6560 -49.9770 134° Southeast 495 570 35,000  Level FlightAware ADS-B
Thu 07:12:57 AM -19.7110 -49.9170 134° Southeast 496 571 35,000  Level FlightAware ADS-B
Thu 07:13:34 AM -19.7710 -49.8510 134° Southeast 496 571 35,000  Level FlightAware ADS-B
Thu 07:13:58 AM -19.8080 -49.8110 135° Southeast 496 571 35,000  Level FlightAware ADS-B
Thu 07:14:34 AM -19.8670 -49.7460 134° Southeast 497 572 35,000  Level FlightAware ADS-B
Thu 07:15:06 AM -19.9190 -49.6900 135° Southeast 497 572 35,000  Level FlightAware ADS-B
Thu 07:15:46 AM -19.9800 -49.6220 134° Southeast 497 572 35,000  Level FlightAware ADS-B
Thu 07:16:22 AM -20.0400 -49.5560 134° Southeast 497 572 35,000  Level FlightAware ADS-B
Thu 07:16:53 AM -20.0880 -49.5040 135° Southeast 498 573 35,000  Level FlightAware ADS-B
Thu 07:17:30 AM -20.1490 -49.4370 134° Southeast 498 573 35,000  Level FlightAware ADS-B
Thu 07:18:06 AM -20.2070 -49.3730 134° Southeast 498 573 35,000  Level FlightAware ADS-B
Thu 07:18:38 AM -20.2580 -49.3160 134° Southeast 498 573 35,000  Level FlightAware ADS-B
Thu 07:19:16 AM -20.3190 -49.2490 134° Southeast 499 574 35,000  Level FlightAware ADS-B
Thu 07:19:51 AM -20.3740 -49.1880 134° Southeast 498 573 35,000  Level FlightAware ADS-B
Thu 07:19:59 AM -20.3850 -49.1760 134° Southeast 498 573 35,000  Level FlightAware ADS-B
Thu 07:20:50 AM -20.4490 -49.1050 134° Southeast 498 573 35,000  Level FlightAware ADS-B
Thu 07:21:27 AM -20.5300 -49.0160 134° Southeast 498 573 35,000  Level FlightAware ADS-B
Thu 07:22:03 AM -20.5860 -48.9540 134° Southeast 498 573 35,000  Level FlightAware ADS-B
Thu 07:22:37 AM -20.6400 -48.8940 134° Southeast 499 574 35,000  Level FlightAware ADS-B
Thu 07:22:51 AM -20.6620 -48.8690 133° Southeast 499 574 35,000  Level FlightAware ADS-B
Thu 07:24:01 AM -20.7730 -48.7450 134° Southeast 500 575 35,000  Level FlightAware ADS-B
Thu 07:24:35 AM -20.8280 -48.6830 134° Southeast 500 575 35,000  Level FlightAware ADS-B
Thu 07:25:13 AM -20.8890 -48.6150 134° Southeast 500 575 35,000  Level FlightAware ADS-B
Thu 07:25:50 AM -20.9490 -48.5470 133° Southeast 500 575 35,000  Level FlightAware ADS-B
Thu 07:26:22 AM -21.0020 -48.4930 136° Southeast 495 570 35,000  Level FlightAware ADS-B
Thu 07:26:58 AM -21.0650 -48.4380 141° Southeast 496 571 35,000  Level FlightAware ADS-B
Thu 07:27:34 AM -21.1290 -48.3800 140° Southeast 497 572 35,000  Level FlightAware ADS-B
Thu 07:28:10 AM -21.1940 -48.3230 141° Southeast 497 572 35,000  Level FlightAware ADS-B
Thu 07:28:42 AM -21.2510 -48.2730 141° Southeast 498 573 35,000  Level FlightAware ADS-B
Thu 07:29:14 AM -21.3090 -48.2230 141° Southeast 499 574 35,000  Level FlightAware ADS-B
Thu 07:29:54 AM -21.3800 -48.1600 140° Southeast 500 575 35,000  Level FlightAware ADS-B
Thu 07:30:30 AM -21.4450 -48.1030 141° Southeast 500 575 35,000  Level FlightAware ADS-B
Thu 07:31:06 AM -21.5090 -48.0470 141° Southeast 501 577 35,000  Level FlightAware ADS-B
Thu 07:31:36 AM -21.5630 -47.9990 140° Southeast 501 577 35,000  Level FlightAware ADS-B
Thu 07:32:11 AM -21.6240 -47.9450 141° Southeast 501 577 35,000  Level FlightAware ADS-B
Thu 07:32:50 AM -21.6960 -47.8820 141° Southeast 502 578 35,000  Level FlightAware ADS-B
Thu 07:33:22 AM -21.7530 -47.8310 140° Southeast 502 578 35,000  Level FlightAware ADS-B
Thu 07:33:58 AM -21.8180 -47.7740 141° Southeast 502 578 35,000  Level FlightAware ADS-B
Thu 07:34:35 AM -21.8830 -47.7160 140° Southeast 502 578 35,000  Level FlightAware ADS-B
Thu 07:35:10 AM -21.9470 -47.6590 140° Southeast 502 578 35,000 -90 Level FlightAware ADS-B
Thu 07:35:42 AM -22.0050 -47.6080 141° Southeast 500 575 34,900 -1,500 Descending FlightAware ADS-B
Thu 07:36:18 AM -22.0680 -47.5520 141° Southeast 500 575 33,300 -2,757 Descending FlightAware ADS-B
Thu 07:36:56 AM -22.1360 -47.4920 141° Southeast 500 575 31,500 -3,127 Descending FlightAware ADS-B
Thu 07:37:29 AM -22.1940 -47.4400 140° Southeast 505 581 29,600 -2,783 Descending FlightAware ADS-B
Thu 07:38:05 AM -22.2600 -47.3810 140° Southeast 495 570 28,300 -1,833 Descending FlightAware ADS-B
Thu 07:38:41 AM -22.3050 -47.3400 140° Southeast 488 562 27,400 -1,941 Descending FlightAware ADS-B
Thu 07:39:13 AM -22.3780 -47.2760 141° Southeast 471 542 26,100 -2,294 Descending FlightAware ADS-B
Thu 07:39:49 AM -22.4380 -47.2220 140° Southeast 461 531 24,800 -2,182 Descending FlightAware ADS-B
Thu 07:39:57 AM -22.4510 -47.2100 140° Southeast 460 529 24,500 -1,636 Descending FlightAware ADS-B
Thu 07:40:55 AM -22.5210 -47.1470 140° Southeast 450 518 23,000 -2,061 Descending FlightAware ADS-B
Thu 07:41:36 AM -22.6160 -47.0820 148° Southeast 437 503 21,100 -2,189 Descending FlightAware ADS-B
Thu 07:42:09 AM -22.6750 -47.0560 158° South 411 473 20,300 -1,781 Descending FlightAware ADS-B
Thu 07:42:40 AM -22.7290 -47.0340 159° South 385 443 19,200 -1,742 Descending FlightAware ADS-B
Thu 07:43:42 AM -22.8250 -46.9940 159° South 328 377 17,600 -1,705 Descending FlightAware ADS-B
Thu 07:44:15 AM -22.8690 -46.9750 158° South 311 358 16,500 -1,913 Descending FlightAware ADS-B
Thu 07:44:51 AM -22.9160 -46.9550 159° South 306 352 15,400 -1,886 Descending FlightAware ADS-B
Thu 07:45:25 AM -22.9620 -46.9360 159° South 303 349 14,300 -1,558 Descending FlightAware ADS-B
Thu 07:46:08 AM -23.0170 -46.9130 159° South 281 323 13,400 -1,600 Descending FlightAware ADS-B
Thu 07:46:40 AM -23.0560 -46.8970 159° South 270 311 12,300 -2,057 Descending FlightAware ADS-B
Thu 07:47:18 AM -23.1000 -46.8780 158° South 268 308 11,000 -1,784 Descending FlightAware ADS-B
Thu 07:47:54 AM -23.1420 -46.8600 158° South 270 311 10,100 -1,500 Descending FlightAware ADS-B
Thu 07:48:14 AM -23.1650 -46.8500 158° South 274 315 9,600 -1,350 Descending FlightAware ADS-B
Thu 07:48:34 AM -23.1890 -46.8400 159° South 273 314 9,200 -1,171 Descending FlightAware ADS-B
Thu 07:48:55 AM -23.2130 -46.8300 159° South 270 311 8,800 -1,091 Descending FlightAware ADS-B
Thu 07:49:18 AM -23.2390 -46.8190 159° South 269 310 8,400 -1,071 Descending FlightAware ADS-B
Thu 07:49:23 AM -23.2470 -46.8170 167° South 269 310 8,300 -1,500 Descending FlightAware ADS-B
Thu 07:49:30 AM -23.2550 -46.8160 173° South 269 310 8,100 -833 Descending FlightAware ADS-B
Thu 07:49:59 AM -23.2910 -46.8220 189° South 253 291 7,800 -511 Descending FlightAware ADS-B
Thu 07:50:17 AM -23.3110 -46.8250 188° South 239 275 7,700 -333 Descending FlightAware ADS-B
Thu 07:50:35 AM -23.3290 -46.8290 192° South 225 259 7,600 -316 Descending FlightAware ADS-B
Thu 07:50:55 AM -23.3500 -46.8320 187° South 220 253 7,500 -300 Descending FlightAware ADS-B
Thu 07:51:15 AM -23.3700 -46.8360 190° South 220 253 7,400 -439 Descending FlightAware ADS-B
Thu 07:51:36 AM -23.3910 -46.8400 190° South 219 252 7,200 -933 Descending FlightAware ADS-B
Thu 07:52:00 AM -23.4150 -46.8440 189° South 219 252 6,700 -960 Descending FlightAware ADS-B
Thu 07:52:26 AM -23.4330 -46.8430 177° South 220 253 6,400 -588 Descending FlightAware ADS-B
Thu 07:52:51 AM -23.4570 -46.8340 161° South 219 252 6,200 -300 Descending FlightAware ADS-B
Thu 07:53:06 AM -23.4720 -46.8290 163° South 218 251 6,200  Level FlightAware ADS-B
Thu 07:53:23 AM -23.4860 -46.8180 144° Southeast 216 249 6,200  Level FlightAware ADS-B
Thu 07:53:31 AM -23.4900 -46.8110 122° Southeast 215 247 6,200  Level FlightAware ADS-B
Thu 07:53:39 AM -23.4940 -46.8040 122° Southeast 212 244 6,200  Level FlightAware ADS-B
Thu 07:54:05 AM -23.5060 -46.7750 114° Southeast 209 241 6,200  Level FlightAware ADS-B
Thu 07:54:22 AM -23.5090 -46.7630 105° East 209 241 6,200  Level FlightAware ADS-B
Thu 07:54:29 AM -23.5090 -46.7550 90° East 208 239 6,200  Level FlightAware ADS-B
Thu 07:54:53 AM -23.5020 -46.7230 77° East 200 230 6,200 -150 Level FlightAware ADS-B
Thu 07:55:09 AM -23.4980 -46.7070 75° East 200 230 6,100 -667 Descending FlightAware ADS-B
Thu 07:55:29 AM -23.4930 -46.6880 74° East 204 235 5,800 -1,050 Descending FlightAware ADS-B
Thu 07:55:49 AM -23.4880 -46.6680 75° East 206 237 5,400 -1,077 Descending FlightAware ADS-B
Thu 07:56:08 AM -23.4830 -46.6490 74° East 207 238 5,100 -977 Descending FlightAware ADS-B
Thu 07:56:32 AM -23.4760 -46.6260 72° East 202 232 4,700 -1,067 Descending FlightAware ADS-B
Thu 07:56:53 AM -23.4710 -46.6050 75° East 193 222 4,300 -1,024 Descending FlightAware ADS-B
Thu 07:57:13 AM -23.4650 -46.5860 71° East 188 216 4,000 -1,050 Descending FlightAware ADS-B
Thu 07:57:33 AM -23.4610 -46.5680 76° East 175 201 3,600 -977 Descending FlightAware ADS-B
Thu 07:57:56 AM -23.4560 -46.5510 72° East 169 194 3,300 -818 Descending FlightAware ADS-B
Thu 07:58:17 AM -23.4510 -46.5330 73° East 166 191 3,000 -811 Descending FlightAware ADS-B
Thu 07:58:33 AM -23.4480 -46.5200 76° East 161 185 2,800 -615 Descending FlightAware ADS-B
Thu 07:58:56 AM -23.4440 -46.5080 70° East 165 190 2,600 -837 Descending FlightAware ADS-B
Thu 07:59:16 AM -23.4390 -46.4880 75° East 159 183 2,200 -882 Descending FlightAware ADS-B
Thu 07:59:30 AM -23.4360 -46.4780 72° East 153 176 2,100 -429 Descending FlightAware ADS-B

Login

Don't have an account? Register now (free) for customized features, flight alerts, and more!